Sophie Blue — CRXK3 — position and weather

sailwx.info

Track history (hours):
 
Tides and Currents Weather Stations Pressure Air Temp Water Temp Dewpoint Dewpoint Depression Visibility Wind Speed Wind Dir Waves Ship Positions

Sophie Blue

Last reported at 2016-Aug-30 10:05 UTC. Time now 2016-Aug-30 17:05 UTC.
Position N 43°43' E 007°26'.

; draft 2.5 m.

Type: Other ship. MMSI: 255901270.

Date/timePositionNaut miles runAvg speedWind from/ knotsBaromVisibWave heightAir tempDewpointWater temp
2016-Aug-30 10:05N 43°43' E 007°26'6 9.0
2016-Aug-30 09:28N 43°41' E 007°19'1 0.5
2016-Aug-30 08:22N 43°42' E 007°19'0 0.0
2016-Aug-30 06:28N 43°42' E 007°19'0 0.0
2016-Aug-30 05:28N 43°42' E 007°19'0 0.0
2016-Aug-30 04:22N 43°42' E 007°19'0 0.0
2016-Aug-30 02:28N 43°42' E 007°19'0 0.0
2016-Aug-30 01:28N 43°42' E 007°19'0 0.0
2016-Aug-30 00:28N 43°42' E 007°19'0 0.0
2016-Aug-29 23:28N 43°42' E 007°19'0 0.0
2016-Aug-29 21:10N 43°42' E 007°19'0 0.0
2016-Aug-29 19:34N 43°42' E 007°19'0 0.0
2016-Aug-29 18:33N 43°42' E 007°19'0 0.0
2016-Aug-29 17:34N 43°42' E 007°19'0 0.0
2016-Aug-29 16:33N 43°42' E 007°19'0 0.0
2016-Aug-29 15:33N 43°42' E 007°19'0 0.0
2016-Aug-29 14:34N 43°42' E 007°19'0 0.0
2016-Aug-29 13:33N 43°42' E 007°19'0 0.0
2016-Aug-29 12:33N 43°42' E 007°19'0 0.0
2016-Aug-29 11:30N 43°42' E 007°19'8 8.4
2016-Aug-29 10:34N 43°36' E 007°12'1212.4
2016-Aug-29 09:33N 43°27' E 006°60'19 1.3
2016-Aug-28 18:28N 43°17' E 006°38'0 0.0
2016-Aug-28 17:22N 43°17' E 006°38'0 0.0
2016-Aug-28 16:28N 43°17' E 006°38'1 1.3
2016-Aug-28 15:33N 43°16' E 006°39'0 0.0
2016-Aug-28 14:11N 43°16' E 006°39'0 0.0
2016-Aug-28 13:15N 43°16' E 006°39'0 0.0
2016-Aug-28 12:14N 43°16' E 006°39'1 0.1
2016-Aug-27 19:26N 43°17' E 006°38'0 0.0
2016-Aug-27 18:32N 43°17' E 006°38'0 0.0
2016-Aug-27 17:32N 43°17' E 006°38'0 0.3
2016-Aug-27 16:33N 43°16' E 006°38'4 0.2
2016-Aug-26 16:16N 43°13' E 006°40'0 0.1
2016-Aug-26 15:33N 43°13' E 006°40'0 0.0
2016-Aug-26 14:31N 43°13' E 006°40'0 0.0
2016-Aug-26 13:33N 43°13' E 006°40'  
2016-Aug-23 16:33N 43°17' E 006°38'1 1.2
2016-Aug-23 15:24N 43°16' E 006°39'  
Track history (hours):
 
Tides and Currents Weather Stations Pressure Air Temp Water Temp Dewpoint Dewpoint Depression Visibility Wind Speed Wind Dir Waves Ship Positions

Sophie Blue

Last reported at 2016-Aug-30 10:05 UTC. Time now 2016-Aug-30 17:05 UTC.
Position N 43°43' E 007°26'.

; draft 2.5 m.

Type: Other ship. MMSI: 255901270.

Date/timePositionNaut miles runAvg speedWind from/ knotsBaromVisibWave heightAir tempDewpointWater temp
2016-Aug-30 10:05N 43°43' E 007°26'6 9.0
2016-Aug-30 09:28N 43°41' E 007°19'1 0.5
2016-Aug-30 08:22N 43°42' E 007°19'0 0.0
2016-Aug-30 06:28N 43°42' E 007°19'0 0.0
2016-Aug-30 05:28N 43°42' E 007°19'0 0.0
2016-Aug-30 04:22N 43°42' E 007°19'0 0.0
2016-Aug-30 02:28N 43°42' E 007°19'0 0.0
2016-Aug-30 01:28N 43°42' E 007°19'0 0.0
2016-Aug-30 00:28N 43°42' E 007°19'0 0.0
2016-Aug-29 23:28N 43°42' E 007°19'0 0.0
2016-Aug-29 21:10N 43°42' E 007°19'0 0.0
2016-Aug-29 19:34N 43°42' E 007°19'0 0.0
2016-Aug-29 18:33N 43°42' E 007°19'0 0.0
2016-Aug-29 17:34N 43°42' E 007°19'0 0.0
2016-Aug-29 16:33N 43°42' E 007°19'0 0.0
2016-Aug-29 15:33N 43°42' E 007°19'0 0.0
2016-Aug-29 14:34N 43°42' E 007°19'0 0.0
2016-Aug-29 13:33N 43°42' E 007°19'0 0.0
2016-Aug-29 12:33N 43°42' E 007°19'0 0.0
2016-Aug-29 11:30N 43°42' E 007°19'8 8.4
2016-Aug-29 10:34N 43°36' E 007°12'1212.4
2016-Aug-29 09:33N 43°27' E 006°60'19 1.3
2016-Aug-28 18:28N 43°17' E 006°38'0 0.0
2016-Aug-28 17:22N 43°17' E 006°38'0 0.0
2016-Aug-28 16:28N 43°17' E 006°38'1 1.3
2016-Aug-28 15:33N 43°16' E 006°39'0 0.0
2016-Aug-28 14:11N 43°16' E 006°39'0 0.0
2016-Aug-28 13:15N 43°16' E 006°39'0 0.0
2016-Aug-28 12:14N 43°16' E 006°39'1 0.1
2016-Aug-27 19:26N 43°17' E 006°38'0 0.0
2016-Aug-27 18:32N 43°17' E 006°38'0 0.0
2016-Aug-27 17:32N 43°17' E 006°38'0 0.3
2016-Aug-27 16:33N 43°16' E 006°38'4 0.2
2016-Aug-26 16:16N 43°13' E 006°40'0 0.1
2016-Aug-26 15:33N 43°13' E 006°40'0 0.0
2016-Aug-26 14:31N 43°13' E 006°40'0 0.0
2016-Aug-26 13:33N 43°13' E 006°40'  
2016-Aug-23 16:33N 43°17' E 006°38'1 1.2
2016-Aug-23 15:24N 43°16' E 006°39'  

Dump ship's entire track history